createdAt,value
2018-11-22T00:03:43.418Z,17.97
2018-11-22T00:06:18.482Z,18.30
2018-11-22T00:08:53.383Z,18.47
2018-11-22T00:11:28.437Z,18.80
2018-11-22T00:14:03.486Z,18.27
2018-11-22T00:16:38.725Z,16.97
2018-11-22T00:19:13.714Z,18.23
2018-11-22T00:21:48.407Z,17.97
2018-11-22T00:24:23.284Z,18.17
2018-11-22T00:26:58.318Z,16.93
2018-11-22T00:29:33.283Z,17.47
2018-11-22T00:32:08.297Z,16.33
2018-11-22T00:34:42.891Z,19.00
2018-11-22T00:37:17.331Z,17.97
2018-11-22T00:39:52.082Z,18.83
2018-11-22T00:42:26.916Z,18.27
2018-11-22T00:47:37.529Z,18.30
2018-11-22T00:55:29.103Z,17.40
2018-11-22T00:58:04.052Z,18.53
2018-11-22T01:00:39.515Z,18.73
2018-11-22T01:03:14.278Z,18.77
2018-11-22T01:05:49.284Z,18.50
2018-11-22T01:08:24.285Z,19.33
2018-11-22T01:10:59.142Z,18.00
2018-11-22T01:13:33.791Z,19.60
2018-11-22T01:16:08.779Z,18.40
2018-11-22T01:18:43.458Z,17.73
2018-11-22T01:23:50.912Z,17.93
2018-11-22T01:26:25.426Z,18.43
2018-11-22T01:28:59.954Z,18.90
2018-11-22T01:31:34.486Z,18.27
2018-11-22T01:34:09.374Z,18.70
2018-11-22T01:36:43.949Z,18.17
2018-11-22T01:39:18.736Z,18.63
2018-11-22T01:41:53.295Z,18.17
2018-11-22T01:44:28.387Z,19.33
2018-11-22T01:52:04.022Z,18.30
2018-11-22T01:54:38.593Z,19.03
2018-11-22T01:57:13.285Z,18.93
2018-11-22T01:59:48.281Z,18.87
2018-11-22T02:04:55.957Z,18.70
2018-11-22T02:07:30.905Z,18.03
2018-11-22T02:10:05.402Z,18.20
2018-11-22T02:12:56.971Z,18.43
2018-11-22T02:15:32.292Z,17.97
2018-11-22T02:18:06.894Z,18.50
2018-11-22T02:20:42.140Z,19.50
2018-11-22T02:23:17.086Z,18.17
2018-11-22T02:25:52.272Z,19.10
2018-11-22T02:28:26.796Z,19.13
2018-11-22T02:31:01.290Z,19.80
2018-11-22T02:33:35.948Z,17.32
2018-11-22T02:36:10.388Z,18.40
2018-11-22T02:38:44.952Z,18.90
2018-11-22T02:41:19.445Z,18.27
2018-11-22T02:43:54.286Z,19.70
2018-11-22T02:49:01.951Z,18.53
2018-11-22T02:51:36.964Z,18.05
2018-11-22T02:54:11.922Z,18.23
2018-11-22T02:56:46.456Z,19.77
2018-11-22T02:59:20.953Z,19.57
2018-11-22T03:01:55.560Z,17.83
2018-11-22T03:04:30.083Z,18.17
2018-11-22T03:07:05.171Z,17.57
2018-11-22T03:09:39.710Z,17.67
2018-11-22T03:12:15.281Z,18.00
2018-11-22T03:14:50.113Z,18.35
2018-11-22T03:17:24.799Z,18.73
2018-11-22T03:19:59.754Z,17.73
2018-11-22T03:22:34.297Z,18.50
2018-11-22T03:25:10.382Z,18.65
2018-11-22T03:27:51.460Z,18.30
2018-11-22T03:30:26.748Z,17.80
2018-11-22T03:33:02.415Z,18.80
2018-11-22T03:35:37.448Z,18.30
2018-11-22T03:38:12.148Z,17.90
2018-11-22T03:40:46.961Z,17.23
2018-11-22T03:43:25.301Z,18.27
2018-11-22T03:45:59.972Z,18.17
2018-11-22T03:48:34.691Z,19.50
2018-11-22T03:51:10.123Z,18.73
2018-11-22T03:53:44.497Z,18.43
2018-11-22T03:58:52.338Z,19.05
2018-11-22T04:01:26.962Z,18.53
2018-11-22T04:04:01.567Z,19.30
2018-11-22T04:06:36.330Z,19.10
2018-11-22T04:09:15.444Z,18.93
2018-11-22T04:14:22.922Z,18.33
2018-11-22T04:16:57.802Z,18.10
2018-11-22T04:24:37.509Z,18.93
2018-11-22T04:27:12.340Z,18.23
2018-11-22T04:29:46.961Z,18.27
2018-11-22T04:32:21.450Z,20.33
2018-11-22T04:34:56.322Z,18.82
2018-11-22T04:37:30.965Z,20.17
2018-11-22T04:40:05.710Z,18.40
2018-11-22T04:42:40.586Z,19.63
2018-11-22T04:45:15.412Z,19.97
2018-11-22T04:50:43.317Z,19.67
2018-11-22T04:53:17.955Z,19.23
2018-11-22T04:55:52.514Z,19.87
2018-11-22T05:03:33.283Z,18.75
2018-11-22T05:06:08.297Z,19.40
2018-11-22T05:08:43.352Z,18.17
2018-11-22T05:11:18.088Z,19.57
2018-11-22T05:13:52.541Z,19.03
2018-11-22T05:16:28.399Z,20.03
2018-11-22T05:19:03.307Z,18.05
2018-11-22T05:24:11.114Z,19.45
2018-11-22T05:26:45.488Z,20.90
2018-11-22T05:29:20.331Z,19.42
2018-11-22T05:31:55.298Z,18.83
2018-11-22T05:34:29.966Z,20.77
2018-11-22T05:37:04.963Z,20.35
2018-11-22T05:39:39.377Z,19.37
2018-11-22T05:44:46.644Z,20.13
2018-11-22T05:47:21.292Z,21.13
2018-11-22T05:49:55.790Z,19.50
2018-11-22T05:52:30.532Z,18.83
2018-11-22T05:55:04.989Z,19.50
2018-11-22T05:57:40.299Z,19.50
2018-11-22T06:00:26.288Z,21.73
2018-11-22T06:03:06.565Z,20.07
2018-11-22T06:05:41.393Z,19.57
2018-11-22T06:10:49.338Z,19.77
2018-11-22T06:18:31.495Z,21.97
2018-11-22T06:23:39.299Z,19.83
2018-11-22T06:28:47.297Z,22.10
2018-11-22T06:31:22.292Z,22.45
2018-11-22T06:33:58.295Z,23.00
2018-11-22T06:36:33.335Z,22.67
2018-11-22T06:41:41.490Z,22.03
2018-11-22T06:49:22.322Z,20.47
2018-11-22T06:54:33.311Z,22.23
2018-11-22T06:57:08.301Z,23.10
2018-11-22T07:12:28.433Z,24.33
2018-11-22T07:20:14.462Z,24.03
2018-11-22T07:22:50.298Z,21.77
2018-11-22T07:28:00.161Z,23.53
2018-11-22T07:35:46.955Z,25.43
2018-11-22T07:38:22.290Z,25.35
2018-11-22T07:46:03.301Z,23.67
2018-11-22T07:51:11.757Z,24.47
2018-11-22T07:53:46.964Z,24.10
2018-11-22T07:56:24.458Z,22.55
2018-11-22T07:58:59.314Z,23.83
2018-11-22T08:01:34.462Z,24.80
2018-11-22T08:19:56.336Z,23.35
2018-11-22T08:22:31.300Z,24.97
2018-11-22T08:25:06.394Z,24.73
2018-11-22T08:27:41.763Z,23.77
2018-11-22T08:30:17.909Z,23.30
2018-11-22T08:32:54.820Z,30.13
2018-11-22T08:35:29.638Z,26.40
2018-11-22T08:38:06.327Z,25.20
2018-11-22T08:40:41.447Z,22.27
2018-11-22T08:43:22.378Z,23.20
2018-11-22T08:45:57.418Z,22.60
2018-11-22T08:48:32.308Z,23.70
2018-11-22T08:51:07.307Z,22.00
2018-11-22T09:01:21.309Z,22.23
2018-11-22T09:03:56.295Z,22.47
2018-11-22T09:09:04.417Z,21.90
2018-11-22T09:11:39.298Z,22.13
2018-11-22T09:24:27.501Z,23.27
2018-11-22T09:27:02.293Z,22.30
2018-11-22T09:29:39.564Z,20.87
2018-11-22T09:32:12.590Z,22.13
2018-11-22T09:34:47.415Z,21.97
2018-11-22T09:37:22.296Z,23.13
2018-11-22T09:45:03.406Z,29.13
2018-11-22T09:47:38.376Z,43.03
2018-11-22T09:50:14.386Z,22.43
2018-11-22T09:55:23.335Z,22.43
2018-11-22T09:57:58.737Z,20.70
2018-11-22T10:00:33.412Z,22.27
2018-11-22T10:03:09.479Z,22.77
2018-11-22T10:05:44.611Z,21.80
2018-11-22T10:08:26.800Z,23.50
2018-11-22T10:11:01.797Z,21.80
2018-11-22T10:13:36.743Z,22.30
2018-11-22T10:16:11.577Z,21.80
2018-11-22T10:18:48.561Z,22.50
2018-11-22T10:21:23.370Z,20.90
2018-11-22T10:23:58.367Z,22.40
2018-11-22T10:26:33.401Z,21.13
2018-11-22T10:29:08.408Z,22.27
2018-11-22T10:31:43.808Z,21.80
2018-11-22T10:34:18.944Z,22.10
2018-11-22T10:36:56.262Z,23.75
2018-11-22T10:39:31.346Z,22.70
2018-11-22T10:42:06.318Z,22.47
2018-11-22T10:44:41.145Z,22.17
2018-11-22T10:47:16.300Z,22.77
2018-11-22T10:49:51.520Z,23.27
2018-11-22T10:52:26.306Z,22.97
2018-11-22T10:55:01.293Z,25.03
2018-11-22T11:05:53.299Z,23.80
2018-11-22T11:08:30.320Z,22.70
2018-11-22T11:11:05.455Z,22.30
2018-11-22T11:13:40.302Z,24.17
2018-11-22T11:18:48.383Z,21.80
2018-11-22T11:23:56.294Z,22.40
2018-11-22T11:26:31.291Z,23.83
2018-11-22T11:29:12.581Z,24.40
2018-11-22T11:31:42.963Z,23.97
2018-11-22T11:34:18.301Z,24.23
2018-11-22T11:39:26.419Z,22.33
2018-11-22T11:42:01.309Z,23.37
2018-11-22T11:44:36.295Z,24.40
2018-11-22T11:49:44.298Z,22.47
2018-11-22T11:52:19.311Z,21.50
2018-11-22T12:00:00.306Z,21.03
2018-11-22T12:07:41.894Z,20.70
2018-11-22T12:10:21.955Z,21.67
2018-11-22T12:12:57.285Z,20.77
2018-11-22T12:23:11.713Z,19.03
2018-11-22T12:25:46.797Z,16.83
2018-11-22T12:28:23.653Z,16.55
2018-11-22T12:31:06.111Z,18.60
2018-11-22T12:33:42.524Z,17.27
2018-11-22T12:39:01.291Z,16.20
2018-11-22T12:41:36.425Z,20.10
2018-11-22T12:44:11.736Z,19.63
2018-11-22T12:46:46.959Z,19.03
2018-11-22T12:49:24.377Z,18.40
2018-11-22T12:51:59.442Z,19.32
2018-11-22T12:54:34.715Z,19.40
2018-11-22T12:57:10.741Z,21.03
2018-11-22T12:59:45.949Z,19.67
2018-11-22T13:02:23.425Z,19.07
2018-11-22T13:07:31.286Z,18.35
2018-11-22T13:15:15.330Z,19.43
2018-11-22T13:17:50.284Z,18.93
2018-11-22T13:20:25.450Z,18.83
2018-11-22T13:23:00.481Z,18.97
2018-11-22T13:33:15.491Z,35.50
2018-11-22T13:35:50.415Z,20.17
2018-11-22T13:38:25.384Z,18.87
2018-11-22T13:41:00.285Z,38.87
2018-11-22T13:51:08.449Z,19.90
2018-11-22T13:56:15.958Z,18.30
2018-11-22T13:58:51.281Z,19.23
2018-11-22T14:09:05.455Z,20.80
2018-11-22T14:11:40.602Z,19.80
2018-11-22T14:14:15.438Z,20.57
2018-11-22T14:16:50.741Z,21.33
2018-11-22T14:19:25.281Z,22.20
2018-11-22T14:24:33.343Z,22.47
2018-11-22T14:27:08.398Z,22.60
2018-11-22T14:29:43.330Z,25.40
2018-11-22T14:34:51.282Z,24.73
2018-11-22T14:39:59.399Z,22.80
2018-11-22T14:42:34.386Z,21.07
2018-11-22T14:50:26.957Z,22.30
2018-11-22T14:53:23.365Z,20.88
2018-11-22T14:55:58.473Z,21.00
2018-11-22T14:58:35.956Z,21.73
2018-11-22T15:01:11.430Z,21.40
2018-11-22T15:03:46.311Z,20.90
2018-11-22T15:11:29.428Z,40.43
2018-11-22T15:14:04.285Z,31.23
2018-11-22T15:19:12.436Z,19.70
2018-11-22T15:21:47.289Z,20.40
2018-11-22T15:24:22.294Z,19.37
2018-11-22T15:26:57.282Z,20.25
2018-11-22T15:29:32.284Z,19.67
2018-11-22T15:34:40.331Z,20.10
2018-11-22T15:37:15.329Z,22.30
2018-11-22T15:39:50.305Z,18.47
2018-11-22T15:44:58.327Z,18.67
2018-11-22T15:52:39.333Z,19.47
2018-11-22T15:55:20.843Z,19.98
2018-11-22T15:57:52.278Z,20.77
2018-11-22T16:00:31.022Z,20.63
2018-11-22T16:03:06.973Z,19.87
2018-11-22T16:05:42.354Z,20.93
2018-11-22T16:08:17.306Z,21.07
2018-11-22T16:13:25.979Z,20.53
2018-11-22T16:16:00.963Z,20.00
2018-11-22T16:18:44.410Z,20.23
2018-11-22T16:21:19.402Z,20.90
2018-11-22T16:29:00.410Z,20.30
2018-11-22T16:31:34.956Z,21.40
2018-11-22T16:34:09.956Z,19.33
2018-11-22T16:36:45.187Z,20.70
2018-11-22T16:39:19.703Z,20.67
2018-11-22T16:41:54.338Z,19.67
2018-11-22T16:44:29.284Z,20.30
2018-11-22T16:49:37.013Z,19.47
2018-11-22T16:52:11.958Z,19.50
2018-11-22T16:54:46.949Z,19.43
2018-11-22T16:57:23.288Z,20.20
2018-11-22T16:59:57.949Z,20.80
2018-11-22T17:02:32.830Z,20.77
2018-11-22T17:05:07.924Z,20.47
2018-11-22T17:07:42.466Z,21.40
2018-11-22T17:12:55.595Z,21.85
2018-11-22T17:15:34.974Z,21.07
2018-11-22T17:18:10.893Z,21.40
2018-11-22T17:20:45.350Z,22.47
2018-11-22T17:23:19.905Z,25.13
2018-11-22T17:28:51.283Z,21.30
2018-11-22T17:31:25.950Z,21.37
2018-11-22T17:34:00.376Z,22.80
2018-11-22T17:36:34.962Z,21.53
2018-11-22T17:39:15.304Z,22.87
2018-11-22T17:44:22.965Z,42.27
2018-11-22T17:46:58.040Z,32.67
2018-11-22T17:49:33.078Z,22.27
2018-11-22T17:52:08.349Z,23.23
2018-11-22T17:54:43.388Z,21.40
2018-11-22T17:57:18.286Z,21.73
2018-11-22T17:59:53.002Z,20.95
2018-11-22T18:02:27.432Z,22.13
2018-11-22T18:05:02.298Z,21.17
2018-11-22T18:07:36.931Z,20.33
2018-11-22T18:12:46.773Z,19.43
2018-11-22T18:17:55.584Z,19.30
2018-11-22T18:20:31.957Z,21.97
2018-11-22T18:23:11.235Z,19.43
2018-11-22T18:25:41.799Z,20.10
2018-11-22T18:28:16.336Z,18.73
2018-11-22T18:30:50.957Z,18.45
2018-11-22T18:33:25.572Z,19.37
2018-11-22T18:38:51.237Z,18.33
2018-11-22T18:41:25.955Z,19.50
2018-11-22T18:44:00.434Z,15.90
2018-11-22T18:46:35.290Z,18.90
2018-11-22T18:49:10.302Z,17.90
2018-11-22T18:51:45.193Z,16.07
2018-11-22T18:54:20.130Z,17.32
2018-11-22T18:56:54.939Z,17.17
2018-11-22T19:04:35.285Z,16.52
2018-11-22T19:07:10.018Z,16.53
2018-11-22T19:09:44.784Z,14.25
2018-11-22T19:12:19.323Z,14.97
2018-11-22T19:14:54.167Z,14.90
2018-11-22T19:17:30.892Z,15.27
2018-11-22T19:20:09.175Z,14.00
2018-11-22T19:22:42.115Z,14.30
2018-11-22T19:25:16.767Z,13.63
2018-11-22T19:27:51.337Z,13.03
2018-11-22T19:30:37.429Z,14.10
2018-11-22T19:33:11.296Z,15.30
2018-11-22T19:35:47.524Z,14.57
2018-11-22T19:42:01.338Z,15.23
2018-11-22T19:44:36.291Z,20.30
2018-11-22T19:47:11.341Z,37.47
2018-11-22T19:49:46.285Z,16.20
2018-11-22T19:52:21.346Z,14.30
2018-11-22T19:54:56.307Z,16.48
2018-11-22T19:57:31.110Z,15.40
2018-11-22T20:00:06.461Z,15.57
2018-11-22T20:05:16.422Z,16.13
2018-11-22T20:15:33.347Z,15.70
2018-11-22T20:18:09.300Z,16.03
2018-11-22T20:20:49.493Z,15.68
2018-11-22T20:23:21.871Z,15.73
2018-11-22T20:25:55.140Z,15.93
2018-11-22T20:28:30.307Z,14.27
2018-11-22T20:31:04.959Z,15.13
2018-11-22T20:34:00.006Z,13.77
2018-11-22T20:36:36.140Z,13.63
2018-11-22T20:39:15.566Z,13.97
2018-11-22T20:44:23.007Z,14.03
2018-11-22T20:46:57.690Z,21.17
2018-11-22T20:49:32.430Z,15.15
2018-11-22T20:54:39.954Z,13.28
2018-11-22T20:57:14.504Z,13.23
2018-11-22T20:59:49.302Z,13.05
2018-11-22T21:02:23.966Z,12.23
2018-11-22T21:04:58.962Z,12.82
2018-11-22T21:07:33.584Z,13.27
2018-11-22T21:10:09.340Z,12.18
2018-11-22T21:15:27.960Z,12.73
2018-11-22T21:18:04.374Z,11.47
2018-11-22T21:20:40.776Z,12.35
2018-11-22T21:23:15.491Z,12.17
2018-11-22T21:25:50.303Z,12.82
2018-11-22T21:28:24.956Z,12.33
2018-11-22T21:30:59.967Z,13.03
2018-11-22T21:33:38.488Z,12.20
2018-11-22T21:36:12.969Z,11.93
2018-11-22T21:38:48.982Z,12.57
2018-11-22T21:41:23.573Z,12.97
2018-11-22T21:44:01.884Z,12.37
2018-11-22T21:46:36.445Z,12.50
2018-11-22T21:51:56.414Z,13.10
2018-11-22T21:54:31.300Z,12.90
2018-11-22T21:57:05.970Z,12.97
2018-11-22T21:59:40.968Z,12.20
2018-11-22T22:02:15.599Z,13.77
2018-11-22T22:09:56.622Z,12.60
2018-11-22T22:12:31.425Z,12.00
2018-11-22T22:15:05.963Z,12.57
2018-11-22T22:17:41.691Z,11.40
2018-11-22T22:20:22.292Z,12.00
2018-11-22T22:25:30.288Z,12.13
2018-11-22T22:30:38.301Z,11.77
2018-11-22T22:35:46.297Z,12.43
2018-11-22T22:38:21.303Z,12.20
2018-11-22T22:40:56.287Z,12.43
2018-11-22T22:46:04.288Z,12.17
2018-11-22T22:51:12.930Z,10.90
2018-11-22T22:53:50.782Z,11.08
2018-11-22T22:56:25.293Z,10.97
2018-11-22T23:01:43.588Z,10.58
2018-11-22T23:04:18.282Z,10.77
2018-11-22T23:09:25.448Z,9.80
2018-11-22T23:12:00.288Z,11.37
2018-11-22T23:14:35.232Z,10.87
2018-11-22T23:19:43.794Z,8.47
2018-11-22T23:22:18.769Z,9.48
2018-11-22T23:27:26.280Z,9.63
2018-11-22T23:30:01.276Z,9.40
2018-11-22T23:35:09.296Z,9.03
2018-11-22T23:40:18.351Z,8.90
2018-11-22T23:42:53.442Z,10.10
2018-11-22T23:45:29.444Z,9.15
2018-11-22T23:48:04.293Z,8.93
2018-11-22T23:50:38.789Z,8.03
2018-11-22T23:53:13.587Z,9.48
2018-11-22T23:55:48.298Z,9.03
